sensor_id;sensor_type;location;lat;lon;timestamp;temperature;humidity
18729;DHT22;9493;51.884;5.188;2023-08-06T00:01:19;15.40;99.90
18729;DHT22;9493;51.884;5.188;2023-08-06T00:03:48;15.40;99.90
18729;DHT22;9493;51.884;5.188;2023-08-06T00:06:15;15.40;99.90
18729;DHT22;9493;51.884;5.188;2023-08-06T00:08:41;15.40;99.90
18729;DHT22;9493;51.884;5.188;2023-08-06T00:11:08;15.40;99.90
18729;DHT22;9493;51.884;5.188;2023-08-06T00:13:35;15.40;99.90
18729;DHT22;9493;51.884;5.188;2023-08-06T00:16:09;15.40;99.90
18729;DHT22;9493;51.884;5.188;2023-08-06T00:18:37;15.40;99.90
18729;DHT22;9493;51.884;5.188;2023-08-06T00:21:04;15.40;99.90
18729;DHT22;9493;51.884;5.188;2023-08-06T00:23:31;15.50;99.90
18729;DHT22;9493;51.884;5.188;2023-08-06T00:25:57;15.50;99.90
18729;DHT22;9493;51.884;5.188;2023-08-06T00:28:24;15.50;99.90
18729;DHT22;9493;51.884;5.188;2023-08-06T00:30:53;15.50;99.90
18729;DHT22;9493;51.884;5.188;2023-08-06T00:33:19;15.50;99.90
18729;DHT22;9493;51.884;5.188;2023-08-06T00:35:48;15.50;99.90
18729;DHT22;9493;51.884;5.188;2023-08-06T00:38:14;15.50;99.90
18729;DHT22;9493;51.884;5.188;2023-08-06T00:40:41;15.50;99.90
18729;DHT22;9493;51.884;5.188;2023-08-06T00:43:09;15.50;99.90
18729;DHT22;9493;51.884;5.188;2023-08-06T00:45:36;15.50;99.90
18729;DHT22;9493;51.884;5.188;2023-08-06T00:48:05;15.50;99.90
18729;DHT22;9493;51.884;5.188;2023-08-06T00:50:32;15.50;99.90
18729;DHT22;9493;51.884;5.188;2023-08-06T00:53:01;15.50;99.90
18729;DHT22;9493;51.884;5.188;2023-08-06T00:55:29;15.50;99.90
18729;DHT22;9493;51.884;5.188;2023-08-06T00:57:56;15.50;99.90
18729;DHT22;9493;51.884;5.188;2023-08-06T01:00:25;15.50;99.90
18729;DHT22;9493;51.884;5.188;2023-08-06T01:02:53;15.50;99.90
18729;DHT22;9493;51.884;5.188;2023-08-06T01:05:20;15.50;99.90
18729;DHT22;9493;51.884;5.188;2023-08-06T01:07:55;15.50;99.90
18729;DHT22;9493;51.884;5.188;2023-08-06T01:10:40;15.50;99.90
18729;DHT22;9493;51.884;5.188;2023-08-06T01:13:18;15.50;99.90
18729;DHT22;9493;51.884;5.188;2023-08-06T01:15:48;15.50;99.90
18729;DHT22;9493;51.884;5.188;2023-08-06T01:18:16;15.50;99.90
18729;DHT22;9493;51.884;5.188;2023-08-06T01:20:44;15.50;99.90
18729;DHT22;9493;51.884;5.188;2023-08-06T01:23:11;15.50;99.90
18729;DHT22;9493;51.884;5.188;2023-08-06T01:25:43;15.50;99.90
18729;DHT22;9493;51.884;5.188;2023-08-06T01:28:18;15.40;99.90
18729;DHT22;9493;51.884;5.188;2023-08-06T01:30:50;15.50;99.90
18729;DHT22;9493;51.884;5.188;2023-08-06T01:33:21;15.50;99.90
18729;DHT22;9493;51.884;5.188;2023-08-06T01:35:51;15.40;99.90
18729;DHT22;9493;51.884;5.188;2023-08-06T01:38:18;15.40;99.90
18729;DHT22;9493;51.884;5.188;2023-08-06T01:40:45;15.50;99.90
18729;DHT22;9493;51.884;5.188;2023-08-06T01:43:12;15.40;99.90
18729;DHT22;9493;51.884;5.188;2023-08-06T01:45:39;15.40;99.90
18729;DHT22;9493;51.884;5.188;2023-08-06T01:48:05;15.50;99.90
18729;DHT22;9493;51.884;5.188;2023-08-06T01:50:32;15.50;99.90
18729;DHT22;9493;51.884;5.188;2023-08-06T01:53:01;15.50;99.90
18729;DHT22;9493;51.884;5.188;2023-08-06T01:55:29;15.50;99.90
18729;DHT22;9493;51.884;5.188;2023-08-06T01:57:56;15.50;99.90
18729;DHT22;9493;51.884;5.188;2023-08-06T02:00:22;15.50;99.90
18729;DHT22;9493;51.884;5.188;2023-08-06T02:02:49;15.50;99.90
18729;DHT22;9493;51.884;5.188;2023-08-06T02:05:16;15.50;99.90
18729;DHT22;9493;51.884;5.188;2023-08-06T02:07:43;15.50;99.90
18729;DHT22;9493;51.884;5.188;2023-08-06T02:10:11;15.50;99.90
18729;DHT22;9493;51.884;5.188;2023-08-06T02:12:38;15.50;99.90
18729;DHT22;9493;51.884;5.188;2023-08-06T02:15:06;15.50;99.90
18729;DHT22;9493;51.884;5.188;2023-08-06T02:17:32;15.50;99.90
18729;DHT22;9493;51.884;5.188;2023-08-06T02:19:59;15.50;99.90
18729;DHT22;9493;51.884;5.188;2023-08-06T02:22:27;15.50;99.90
18729;DHT22;9493;51.884;5.188;2023-08-06T02:24:53;15.50;99.90
18729;DHT22;9493;51.884;5.188;2023-08-06T02:27:21;15.50;99.90
18729;DHT22;9493;51.884;5.188;2023-08-06T02:29:48;15.50;99.90
18729;DHT22;9493;51.884;5.188;2023-08-06T02:32:15;15.50;99.90
18729;DHT22;9493;51.884;5.188;2023-08-06T02:34:42;15.50;99.90
18729;DHT22;9493;51.884;5.188;2023-08-06T02:37:09;15.50;99.90
18729;DHT22;9493;51.884;5.188;2023-08-06T02:39:36;15.50;99.90
18729;DHT22;9493;51.884;5.188;2023-08-06T02:42:06;15.50;99.90
18729;DHT22;9493;51.884;5.188;2023-08-06T02:44:34;15.50;99.90
18729;DHT22;9493;51.884;5.188;2023-08-06T02:47:01;15.50;99.90
18729;DHT22;9493;51.884;5.188;2023-08-06T02:49:28;15.50;99.90
18729;DHT22;9493;51.884;5.188;2023-08-06T02:51:54;15.50;99.90
18729;DHT22;9493;51.884;5.188;2023-08-06T02:54:21;15.50;99.90
18729;DHT22;9493;51.884;5.188;2023-08-06T02:56:48;15.50;99.90
18729;DHT22;9493;51.884;5.188;2023-08-06T02:59:15;15.50;99.90
18729;DHT22;9493;51.884;5.188;2023-08-06T03:01:43;15.50;99.90
18729;DHT22;9493;51.884;5.188;2023-08-06T03:04:10;15.50;99.90
18729;DHT22;9493;51.884;5.188;2023-08-06T03:06:37;15.40;99.90
18729;DHT22;9493;51.884;5.188;2023-08-06T03:09:04;15.50;99.90
18729;DHT22;9493;51.884;5.188;2023-08-06T03:11:30;15.50;99.90
18729;DHT22;9493;51.884;5.188;2023-08-06T03:13:57;15.50;99.90
18729;DHT22;9493;51.884;5.188;2023-08-06T03:16:24;15.50;99.90
18729;DHT22;9493;51.884;5.188;2023-08-06T03:18:52;15.40;99.90
18729;DHT22;9493;51.884;5.188;2023-08-06T03:21:19;15.40;99.90
18729;DHT22;9493;51.884;5.188;2023-08-06T03:23:47;15.40;99.90
18729;DHT22;9493;51.884;5.188;2023-08-06T03:26:14;15.50;99.90
18729;DHT22;9493;51.884;5.188;2023-08-06T03:28:40;15.40;99.90
18729;DHT22;9493;51.884;5.188;2023-08-06T03:31:07;15.40;99.90
18729;DHT22;9493;51.884;5.188;2023-08-06T03:33:34;15.40;99.90
18729;DHT22;9493;51.884;5.188;2023-08-06T03:36:03;15.40;99.90
18729;DHT22;9493;51.884;5.188;2023-08-06T03:38:30;15.40;99.90
18729;DHT22;9493;51.884;5.188;2023-08-06T03:40:57;15.50;99.90
18729;DHT22;9493;51.884;5.188;2023-08-06T03:43:23;15.40;99.90
18729;DHT22;9493;51.884;5.188;2023-08-06T03:45:50;15.40;99.90
18729;DHT22;9493;51.884;5.188;2023-08-06T03:48:17;15.50;99.90
18729;DHT22;9493;51.884;5.188;2023-08-06T03:50:44;15.40;99.90
18729;DHT22;9493;51.884;5.188;2023-08-06T03:53:12;15.40;99.90
18729;DHT22;9493;51.884;5.188;2023-08-06T03:55:39;15.40;99.90
18729;DHT22;9493;51.884;5.188;2023-08-06T03:58:06;15.40;99.90
18729;DHT22;9493;51.884;5.188;2023-08-06T04:00:33;15.40;99.90
18729;DHT22;9493;51.884;5.188;2023-08-06T04:03:00;15.40;99.90
18729;DHT22;9493;51.884;5.188;2023-08-06T04:05:27;15.40;99.90
18729;DHT22;9493;51.884;5.188;2023-08-06T04:07:53;15.40;99.90
18729;DHT22;9493;51.884;5.188;2023-08-06T04:10:22;15.40;99.90
18729;DHT22;9493;51.884;5.188;2023-08-06T04:12:48;15.50;99.90
18729;DHT22;9493;51.884;5.188;2023-08-06T04:15:15;15.50;99.90
18729;DHT22;9493;51.884;5.188;2023-08-06T04:17:42;15.40;99.90
18729;DHT22;9493;51.884;5.188;2023-08-06T04:20:09;15.40;99.90
18729;DHT22;9493;51.884;5.188;2023-08-06T04:22:36;15.40;99.90
18729;DHT22;9493;51.884;5.188;2023-08-06T04:25:04;15.50;99.90
18729;DHT22;9493;51.884;5.188;2023-08-06T04:27:32;15.50;99.90
18729;DHT22;9493;51.884;5.188;2023-08-06T04:29:59;15.50;99.90
18729;DHT22;9493;51.884;5.188;2023-08-06T04:32:25;15.50;99.90
18729;DHT22;9493;51.884;5.188;2023-08-06T04:34:55;15.50;99.90
18729;DHT22;9493;51.884;5.188;2023-08-06T04:37:22;15.50;99.90
18729;DHT22;9493;51.884;5.188;2023-08-06T04:39:48;15.50;99.90
18729;DHT22;9493;51.884;5.188;2023-08-06T04:42:15;15.50;99.90
18729;DHT22;9493;51.884;5.188;2023-08-06T04:44:43;15.50;99.90
18729;DHT22;9493;51.884;5.188;2023-08-06T04:47:10;15.50;99.90
18729;DHT22;9493;51.884;5.188;2023-08-06T04:49:37;15.50;99.90
18729;DHT22;9493;51.884;5.188;2023-08-06T04:52:05;15.50;99.90
18729;DHT22;9493;51.884;5.188;2023-08-06T04:54:32;15.50;99.90
18729;DHT22;9493;51.884;5.188;2023-08-06T04:56:58;15.70;99.90
18729;DHT22;9493;51.884;5.188;2023-08-06T04:59:25;15.60;99.90
18729;DHT22;9493;51.884;5.188;2023-08-06T05:01:53;15.60;99.90
18729;DHT22;9493;51.884;5.188;2023-08-06T05:04:20;15.60;99.90
18729;DHT22;9493;51.884;5.188;2023-08-06T05:06:48;15.60;99.90
18729;DHT22;9493;51.884;5.188;2023-08-06T05:09:15;15.70;99.90
18729;DHT22;9493;51.884;5.188;2023-08-06T05:11:41;15.70;99.90
18729;DHT22;9493;51.884;5.188;2023-08-06T05:14:08;15.80;99.90
18729;DHT22;9493;51.884;5.188;2023-08-06T05:16:35;15.70;99.90
18729;DHT22;9493;51.884;5.188;2023-08-06T05:19:03;15.70;99.90
18729;DHT22;9493;51.884;5.188;2023-08-06T05:21:30;15.70;99.90
18729;DHT22;9493;51.884;5.188;2023-08-06T05:23:56;15.70;99.90
18729;DHT22;9493;51.884;5.188;2023-08-06T05:26:23;15.70;99.90
18729;DHT22;9493;51.884;5.188;2023-08-06T05:28:50;15.80;99.90
18729;DHT22;9493;51.884;5.188;2023-08-06T05:31:17;15.80;99.90
18729;DHT22;9493;51.884;5.188;2023-08-06T05:33:44;15.80;99.90
18729;DHT22;9493;51.884;5.188;2023-08-06T05:36:12;15.90;99.90
18729;DHT22;9493;51.884;5.188;2023-08-06T05:38:39;15.80;99.90
18729;DHT22;9493;51.884;5.188;2023-08-06T05:41:06;15.80;99.90
18729;DHT22;9493;51.884;5.188;2023-08-06T05:43:33;15.80;99.90
18729;DHT22;9493;51.884;5.188;2023-08-06T05:46:00;15.80;99.90
18729;DHT22;9493;51.884;5.188;2023-08-06T05:48:26;15.90;99.90
18729;DHT22;9493;51.884;5.188;2023-08-06T05:50:53;15.80;99.90
18729;DHT22;9493;51.884;5.188;2023-08-06T05:53:21;15.80;99.90
18729;DHT22;9493;51.884;5.188;2023-08-06T05:55:48;15.90;99.90
18729;DHT22;9493;51.884;5.188;2023-08-06T05:58:15;15.90;99.90
18729;DHT22;9493;51.884;5.188;2023-08-06T06:00:42;15.90;99.90
18729;DHT22;9493;51.884;5.188;2023-08-06T06:03:09;15.90;99.90
18729;DHT22;9493;51.884;5.188;2023-08-06T06:05:37;15.90;99.90
18729;DHT22;9493;51.884;5.188;2023-08-06T06:08:05;15.90;99.90
18729;DHT22;9493;51.884;5.188;2023-08-06T06:10:33;16.00;99.90
18729;DHT22;9493;51.884;5.188;2023-08-06T06:13:00;16.00;99.90
18729;DHT22;9493;51.884;5.188;2023-08-06T06:15:27;15.90;99.90
18729;DHT22;9493;51.884;5.188;2023-08-06T06:17:53;15.80;99.90
18729;DHT22;9493;51.884;5.188;2023-08-06T06:20:20;15.80;99.90
18729;DHT22;9493;51.884;5.188;2023-08-06T06:22:47;15.80;99.90
18729;DHT22;9493;51.884;5.188;2023-08-06T06:25:14;15.80;99.90
18729;DHT22;9493;51.884;5.188;2023-08-06T06:27:42;15.80;99.90
18729;DHT22;9493;51.884;5.188;2023-08-06T06:30:10;15.70;99.90
18729;DHT22;9493;51.884;5.188;2023-08-06T06:32:37;15.50;99.90
18729;DHT22;9493;51.884;5.188;2023-08-06T06:35:05;15.30;99.90
18729;DHT22;9493;51.884;5.188;2023-08-06T06:37:32;15.30;99.90
18729;DHT22;9493;51.884;5.188;2023-08-06T06:39:59;15.20;99.90
18729;DHT22;9493;51.884;5.188;2023-08-06T06:42:26;15.10;99.90
18729;DHT22;9493;51.884;5.188;2023-08-06T06:44:54;15.10;99.90
18729;DHT22;9493;51.884;5.188;2023-08-06T06:47:21;15.10;99.90
18729;DHT22;9493;51.884;5.188;2023-08-06T06:49:48;14.90;99.90
18729;DHT22;9493;51.884;5.188;2023-08-06T06:52:14;14.90;99.90
18729;DHT22;9493;51.884;5.188;2023-08-06T06:54:41;14.80;99.90
18729;DHT22;9493;51.884;5.188;2023-08-06T06:57:08;14.80;99.90
18729;DHT22;9493;51.884;5.188;2023-08-06T06:59:35;14.80;99.90
18729;DHT22;9493;51.884;5.188;2023-08-06T07:02:03;14.80;99.90
18729;DHT22;9493;51.884;5.188;2023-08-06T07:04:30;14.80;99.90
18729;DHT22;9493;51.884;5.188;2023-08-06T07:06:57;14.80;99.90
18729;DHT22;9493;51.884;5.188;2023-08-06T07:09:24;14.80;99.90
18729;DHT22;9493;51.884;5.188;2023-08-06T07:11:51;14.70;99.90
18729;DHT22;9493;51.884;5.188;2023-08-06T07:14:18;14.70;99.90
18729;DHT22;9493;51.884;5.188;2023-08-06T07:16:45;14.70;99.90
18729;DHT22;9493;51.884;5.188;2023-08-06T07:19:13;14.70;99.90
18729;DHT22;9493;51.884;5.188;2023-08-06T07:21:40;14.70;99.90
18729;DHT22;9493;51.884;5.188;2023-08-06T07:24:07;14.70;99.90
18729;DHT22;9493;51.884;5.188;2023-08-06T07:26:34;14.70;99.90
18729;DHT22;9493;51.884;5.188;2023-08-06T07:29:01;14.80;99.90
18729;DHT22;9493;51.884;5.188;2023-08-06T07:31:27;14.70;99.90
18729;DHT22;9493;51.884;5.188;2023-08-06T07:33:54;14.80;99.90
18729;DHT22;9493;51.884;5.188;2023-08-06T07:36:22;14.80;99.90
18729;DHT22;9493;51.884;5.188;2023-08-06T07:38:49;14.90;99.90
18729;DHT22;9493;51.884;5.188;2023-08-06T07:41:21;14.90;99.90
18729;DHT22;9493;51.884;5.188;2023-08-06T07:43:48;14.90;99.90
18729;DHT22;9493;51.884;5.188;2023-08-06T07:46:14;14.90;99.90
18729;DHT22;9493;51.884;5.188;2023-08-06T07:48:41;14.90;99.90
18729;DHT22;9493;51.884;5.188;2023-08-06T07:51:08;15.00;99.90
18729;DHT22;9493;51.884;5.188;2023-08-06T07:53:37;14.90;99.90
18729;DHT22;9493;51.884;5.188;2023-08-06T07:56:04;14.90;99.90
18729;DHT22;9493;51.884;5.188;2023-08-06T07:58:31;14.90;99.90
18729;DHT22;9493;51.884;5.188;2023-08-06T08:00:58;14.90;99.90
18729;DHT22;9493;51.884;5.188;2023-08-06T08:03:25;14.90;99.90
18729;DHT22;9493;51.884;5.188;2023-08-06T08:05:54;14.90;99.90
18729;DHT22;9493;51.884;5.188;2023-08-06T08:08:22;14.90;99.90
18729;DHT22;9493;51.884;5.188;2023-08-06T08:10:51;14.90;99.90
18729;DHT22;9493;51.884;5.188;2023-08-06T08:13:17;14.90;99.90
18729;DHT22;9493;51.884;5.188;2023-08-06T08:15:44;14.90;99.90
18729;DHT22;9493;51.884;5.188;2023-08-06T08:18:11;14.90;99.90
18729;DHT22;9493;51.884;5.188;2023-08-06T08:20:38;14.80;99.90
18729;DHT22;9493;51.884;5.188;2023-08-06T08:23:05;14.90;99.90
18729;DHT22;9493;51.884;5.188;2023-08-06T08:25:31;14.90;99.90
18729;DHT22;9493;51.884;5.188;2023-08-06T08:28:00;14.90;99.90
18729;DHT22;9493;51.884;5.188;2023-08-06T08:30:27;14.90;99.90
18729;DHT22;9493;51.884;5.188;2023-08-06T08:32:54;14.90;99.90
18729;DHT22;9493;51.884;5.188;2023-08-06T08:35:21;14.90;99.90
18729;DHT22;9493;51.884;5.188;2023-08-06T08:37:48;14.90;99.90
18729;DHT22;9493;51.884;5.188;2023-08-06T08:40:16;14.90;99.90
18729;DHT22;9493;51.884;5.188;2023-08-06T08:42:43;14.90;99.90
18729;DHT22;9493;51.884;5.188;2023-08-06T08:45:13;14.90;99.90
18729;DHT22;9493;51.884;5.188;2023-08-06T08:47:40;15.00;99.90
18729;DHT22;9493;51.884;5.188;2023-08-06T08:50:09;15.00;99.90
18729;DHT22;9493;51.884;5.188;2023-08-06T08:52:38;15.10;99.90
18729;DHT22;9493;51.884;5.188;2023-08-06T08:55:07;15.10;99.90
18729;DHT22;9493;51.884;5.188;2023-08-06T08:57:34;15.20;99.90
18729;DHT22;9493;51.884;5.188;2023-08-06T09:00:01;15.20;99.90
18729;DHT22;9493;51.884;5.188;2023-08-06T09:02:31;15.20;99.90
18729;DHT22;9493;51.884;5.188;2023-08-06T09:05:00;15.30;99.90
18729;DHT22;9493;51.884;5.188;2023-08-06T09:07:31;15.30;99.90
18729;DHT22;9493;51.884;5.188;2023-08-06T09:10:01;15.30;99.90
18729;DHT22;9493;51.884;5.188;2023-08-06T09:12:29;15.30;99.90
18729;DHT22;9493;51.884;5.188;2023-08-06T09:14:56;15.40;99.90
18729;DHT22;9493;51.884;5.188;2023-08-06T09:17:22;15.40;99.90
18729;DHT22;9493;51.884;5.188;2023-08-06T09:19:51;15.40;99.90
18729;DHT22;9493;51.884;5.188;2023-08-06T09:22:17;15.40;99.90
18729;DHT22;9493;51.884;5.188;2023-08-06T09:24:44;15.40;99.90
18729;DHT22;9493;51.884;5.188;2023-08-06T09:27:12;15.40;99.90
18729;DHT22;9493;51.884;5.188;2023-08-06T09:29:41;15.40;99.90
18729;DHT22;9493;51.884;5.188;2023-08-06T09:32:08;15.50;99.90
18729;DHT22;9493;51.884;5.188;2023-08-06T09:34:35;15.50;99.90
18729;DHT22;9493;51.884;5.188;2023-08-06T09:37:08;15.40;99.90
18729;DHT22;9493;51.884;5.188;2023-08-06T09:39:37;15.40;99.90
18729;DHT22;9493;51.884;5.188;2023-08-06T09:42:04;15.40;99.90
18729;DHT22;9493;51.884;5.188;2023-08-06T09:44:32;15.50;99.90
18729;DHT22;9493;51.884;5.188;2023-08-06T09:47:02;15.50;99.90
18729;DHT22;9493;51.884;5.188;2023-08-06T09:49:40;15.50;99.90
18729;DHT22;9493;51.884;5.188;2023-08-06T09:52:11;15.50;99.90
18729;DHT22;9493;51.884;5.188;2023-08-06T09:54:38;15.50;99.90
18729;DHT22;9493;51.884;5.188;2023-08-06T09:57:06;15.50;99.90
18729;DHT22;9493;51.884;5.188;2023-08-06T09:59:33;15.60;99.90
18729;DHT22;9493;51.884;5.188;2023-08-06T10:02:00;15.60;99.90
18729;DHT22;9493;51.884;5.188;2023-08-06T10:04:29;15.60;99.90
18729;DHT22;9493;51.884;5.188;2023-08-06T10:06:56;15.70;99.90
18729;DHT22;9493;51.884;5.188;2023-08-06T10:09:25;15.70;99.90
18729;DHT22;9493;51.884;5.188;2023-08-06T10:11:52;15.70;99.90
18729;DHT22;9493;51.884;5.188;2023-08-06T10:14:23;15.70;99.90
18729;DHT22;9493;51.884;5.188;2023-08-06T10:16:51;15.70;99.90
18729;DHT22;9493;51.884;5.188;2023-08-06T10:19:18;15.70;99.90
18729;DHT22;9493;51.884;5.188;2023-08-06T10:22:10;15.70;99.90
18729;DHT22;9493;51.884;5.188;2023-08-06T10:24:52;15.80;99.90
18729;DHT22;9493;51.884;5.188;2023-08-06T10:27:27;15.80;99.90
18729;DHT22;9493;51.884;5.188;2023-08-06T10:29:54;15.80;99.90
18729;DHT22;9493;51.884;5.188;2023-08-06T10:32:21;15.80;99.90
18729;DHT22;9493;51.884;5.188;2023-08-06T10:34:55;15.80;99.90
18729;DHT22;9493;51.884;5.188;2023-08-06T10:37:23;15.80;99.90
18729;DHT22;9493;51.884;5.188;2023-08-06T10:39:52;15.90;99.90
18729;DHT22;9493;51.884;5.188;2023-08-06T10:42:22;15.90;99.90
18729;DHT22;9493;51.884;5.188;2023-08-06T10:45:16;15.80;99.90
18729;DHT22;9493;51.884;5.188;2023-08-06T10:47:43;15.80;99.90
18729;DHT22;9493;51.884;5.188;2023-08-06T10:50:12;15.80;99.90
18729;DHT22;9493;51.884;5.188;2023-08-06T10:52:39;15.80;99.90
18729;DHT22;9493;51.884;5.188;2023-08-06T10:55:08;15.90;99.90
18729;DHT22;9493;51.884;5.188;2023-08-06T10:57:35;15.80;99.90
18729;DHT22;9493;51.884;5.188;2023-08-06T11:00:04;15.80;99.90
18729;DHT22;9493;51.884;5.188;2023-08-06T11:02:33;15.90;99.90
18729;DHT22;9493;51.884;5.188;2023-08-06T11:05:08;15.80;99.90
18729;DHT22;9493;51.884;5.188;2023-08-06T11:07:35;15.80;99.90
18729;DHT22;9493;51.884;5.188;2023-08-06T11:10:03;15.80;99.90
18729;DHT22;9493;51.884;5.188;2023-08-06T11:12:32;15.80;99.90
18729;DHT22;9493;51.884;5.188;2023-08-06T11:14:59;15.90;99.90
18729;DHT22;9493;51.884;5.188;2023-08-06T11:17:29;15.80;99.90
18729;DHT22;9493;51.884;5.188;2023-08-06T11:19:56;15.80;99.90
18729;DHT22;9493;51.884;5.188;2023-08-06T11:22:25;15.90;99.90
18729;DHT22;9493;51.884;5.188;2023-08-06T11:24:53;15.90;99.90
18729;DHT22;9493;51.884;5.188;2023-08-06T11:27:20;15.90;99.90
18729;DHT22;9493;51.884;5.188;2023-08-06T11:29:48;15.90;99.90
18729;DHT22;9493;51.884;5.188;2023-08-06T11:32:15;16.00;99.90
18729;DHT22;9493;51.884;5.188;2023-08-06T11:34:43;15.90;99.90
18729;DHT22;9493;51.884;5.188;2023-08-06T11:37:10;16.10;99.90
18729;DHT22;9493;51.884;5.188;2023-08-06T11:39:38;16.10;99.90
18729;DHT22;9493;51.884;5.188;2023-08-06T11:42:06;16.10;99.90
18729;DHT22;9493;51.884;5.188;2023-08-06T11:44:35;16.10;99.90
18729;DHT22;9493;51.884;5.188;2023-08-06T11:47:05;16.20;99.90
18729;DHT22;9493;51.884;5.188;2023-08-06T11:49:39;16.10;99.90
18729;DHT22;9493;51.884;5.188;2023-08-06T11:52:10;16.20;99.90
18729;DHT22;9493;51.884;5.188;2023-08-06T11:54:36;16.20;99.90
18729;DHT22;9493;51.884;5.188;2023-08-06T11:59:32;16.30;99.90
18729;DHT22;9493;51.884;5.188;2023-08-06T12:02:02;16.40;99.90
18729;DHT22;9493;51.884;5.188;2023-08-06T12:04:31;16.40;99.90
18729;DHT22;9493;51.884;5.188;2023-08-06T12:07:05;16.40;99.90
18729;DHT22;9493;51.884;5.188;2023-08-06T12:09:33;16.60;99.90
18729;DHT22;9493;51.884;5.188;2023-08-06T12:12:01;16.70;99.90
18729;DHT22;9493;51.884;5.188;2023-08-06T12:14:29;16.80;99.90
18729;DHT22;9493;51.884;5.188;2023-08-06T12:16:56;16.80;99.90
18729;DHT22;9493;51.884;5.188;2023-08-06T12:19:24;16.90;99.90
18729;DHT22;9493;51.884;5.188;2023-08-06T12:24:18;17.10;99.90
18729;DHT22;9493;51.884;5.188;2023-08-06T12:26:45;17.20;99.90
18729;DHT22;9493;51.884;5.188;2023-08-06T12:29:12;17.20;99.90
18729;DHT22;9493;51.884;5.188;2023-08-06T12:31:39;17.40;99.90
18729;DHT22;9493;51.884;5.188;2023-08-06T12:36:34;17.50;99.90
18729;DHT22;9493;51.884;5.188;2023-08-06T12:39:01;17.60;99.90
18729;DHT22;9493;51.884;5.188;2023-08-06T12:41:28;17.80;99.90
18729;DHT22;9493;51.884;5.188;2023-08-06T12:43:54;17.90;99.90
18729;DHT22;9493;51.884;5.188;2023-08-06T12:46:21;17.90;99.90
18729;DHT22;9493;51.884;5.188;2023-08-06T12:48:48;17.80;99.90
18729;DHT22;9493;51.884;5.188;2023-08-06T12:51:15;18.10;99.90
18729;DHT22;9493;51.884;5.188;2023-08-06T12:53:43;18.20;99.90
18729;DHT22;9493;51.884;5.188;2023-08-06T12:56:10;18.20;99.90
18729;DHT22;9493;51.884;5.188;2023-08-06T12:58:37;18.40;99.90
18729;DHT22;9493;51.884;5.188;2023-08-06T13:01:05;18.60;99.90
18729;DHT22;9493;51.884;5.188;2023-08-06T13:10:54;18.90;99.90
18729;DHT22;9493;51.884;5.188;2023-08-06T13:15:48;19.40;99.90
18729;DHT22;9493;51.884;5.188;2023-08-06T13:18:15;19.50;99.90
18729;DHT22;9493;51.884;5.188;2023-08-06T13:20:42;19.50;99.90
18729;DHT22;9493;51.884;5.188;2023-08-06T13:23:09;19.70;99.90
18729;DHT22;9493;51.884;5.188;2023-08-06T13:25:36;19.70;99.90
18729;DHT22;9493;51.884;5.188;2023-08-06T13:28:06;19.90;99.90
18729;DHT22;9493;51.884;5.188;2023-08-06T13:30:32;19.70;99.90
18729;DHT22;9493;51.884;5.188;2023-08-06T13:33:00;19.60;99.90
18729;DHT22;9493;51.884;5.188;2023-08-06T13:35:30;19.30;99.90
18729;DHT22;9493;51.884;5.188;2023-08-06T13:40:23;18.90;99.90
18729;DHT22;9493;51.884;5.188;2023-08-06T13:42:50;19.00;99.90
18729;DHT22;9493;51.884;5.188;2023-08-06T13:45:18;18.70;99.90
18729;DHT22;9493;51.884;5.188;2023-08-06T13:47:45;18.90;99.90
18729;DHT22;9493;51.884;5.188;2023-08-06T13:50:13;19.10;99.90
18729;DHT22;9493;51.884;5.188;2023-08-06T13:52:40;17.10;99.90
18729;DHT22;9493;51.884;5.188;2023-08-06T13:55:10;19.00;99.90
18729;DHT22;9493;51.884;5.188;2023-08-06T14:02:33;18.90;99.90
18729;DHT22;9493;51.884;5.188;2023-08-06T14:07:27;18.70;99.90
18729;DHT22;9493;51.884;5.188;2023-08-06T14:09:54;18.70;99.90
18729;DHT22;9493;51.884;5.188;2023-08-06T14:14:50;18.90;99.90
18729;DHT22;9493;51.884;5.188;2023-08-06T14:17:16;18.70;99.90
18729;DHT22;9493;51.884;5.188;2023-08-06T14:22:11;18.10;99.90
18729;DHT22;9493;51.884;5.188;2023-08-06T14:29:33;17.30;99.90
18729;DHT22;9493;51.884;5.188;2023-08-06T14:39:24;17.00;99.90
18729;DHT22;9493;51.884;5.188;2023-08-06T14:41:51;17.00;99.90
18729;DHT22;9493;51.884;5.188;2023-08-06T14:44:18;17.20;99.90
18729;DHT22;9493;51.884;5.188;2023-08-06T14:46:45;17.40;99.90
18729;DHT22;9493;51.884;5.188;2023-08-06T15:03:55;16.60;99.90
18729;DHT22;9493;51.884;5.188;2023-08-06T15:06:25;16.40;99.90
18729;DHT22;9493;51.884;5.188;2023-08-06T15:08:51;16.50;99.90
18729;DHT22;9493;51.884;5.188;2023-08-06T15:11:21;16.30;99.90
18729;DHT22;9493;51.884;5.188;2023-08-06T15:13:47;15.90;99.90
18729;DHT22;9493;51.884;5.188;2023-08-06T15:18:41;15.20;99.90
18729;DHT22;9493;51.884;5.188;2023-08-06T15:21:09;15.50;99.90
18729;DHT22;9493;51.884;5.188;2023-08-06T15:23:36;15.40;99.90
18729;DHT22;9493;51.884;5.188;2023-08-06T15:26:03;15.70;99.90
18729;DHT22;9493;51.884;5.188;2023-08-06T15:28:31;15.50;99.90
18729;DHT22;9493;51.884;5.188;2023-08-06T15:30:58;15.00;99.90
18729;DHT22;9493;51.884;5.188;2023-08-06T15:33:25;15.70;99.90
18729;DHT22;9493;51.884;5.188;2023-08-06T15:35:51;15.90;99.90
18729;DHT22;9493;51.884;5.188;2023-08-06T15:38:18;15.70;99.90
18729;DHT22;9493;51.884;5.188;2023-08-06T15:40:45;15.70;99.90
18729;DHT22;9493;51.884;5.188;2023-08-06T15:43:12;15.10;99.90
18729;DHT22;9493;51.884;5.188;2023-08-06T15:45:40;15.60;99.90
18729;DHT22;9493;51.884;5.188;2023-08-06T15:48:07;15.60;99.90
18729;DHT22;9493;51.884;5.188;2023-08-06T15:50:36;15.80;99.90
18729;DHT22;9493;51.884;5.188;2023-08-06T15:53:02;15.50;99.90
18729;DHT22;9493;51.884;5.188;2023-08-06T15:55:29;15.40;99.90
18729;DHT22;9493;51.884;5.188;2023-08-06T15:57:58;15.80;99.90
18729;DHT22;9493;51.884;5.188;2023-08-06T16:00:24;15.70;99.90
18729;DHT22;9493;51.884;5.188;2023-08-06T16:02:53;15.50;99.90
18729;DHT22;9493;51.884;5.188;2023-08-06T16:05:19;15.40;99.90
18729;DHT22;9493;51.884;5.188;2023-08-06T16:07:48;15.40;99.90
18729;DHT22;9493;51.884;5.188;2023-08-06T16:10:15;15.40;99.90
18729;DHT22;9493;51.884;5.188;2023-08-06T16:12:42;15.50;99.90
18729;DHT22;9493;51.884;5.188;2023-08-06T16:15:10;15.60;99.90
18729;DHT22;9493;51.884;5.188;2023-08-06T16:17:38;15.80;99.90
18729;DHT22;9493;51.884;5.188;2023-08-06T16:20:08;15.90;99.90
18729;DHT22;9493;51.884;5.188;2023-08-06T16:22:34;15.90;99.90
18729;DHT22;9493;51.884;5.188;2023-08-06T16:25:01;15.90;99.90
18729;DHT22;9493;51.884;5.188;2023-08-06T16:27:28;15.90;99.90
18729;DHT22;9493;51.884;5.188;2023-08-06T16:29:55;15.90;99.90
18729;DHT22;9493;51.884;5.188;2023-08-06T16:32:22;15.80;99.90
18729;DHT22;9493;51.884;5.188;2023-08-06T16:34:49;15.90;99.90
18729;DHT22;9493;51.884;5.188;2023-08-06T16:37:17;16.00;99.90
18729;DHT22;9493;51.884;5.188;2023-08-06T16:39:44;16.10;99.90
18729;DHT22;9493;51.884;5.188;2023-08-06T16:42:11;16.20;99.90
18729;DHT22;9493;51.884;5.188;2023-08-06T16:44:38;16.20;99.90
18729;DHT22;9493;51.884;5.188;2023-08-06T16:47:06;16.40;99.90
18729;DHT22;9493;51.884;5.188;2023-08-06T16:49:33;16.60;99.90